Time;durP1;ratioP1;P1;durP2;ratioP2;P2;SDS_P1;SDS_P2;PMS_P1;PMS_P2;Temp;Humidity;BMP_temperature;BMP_pressure;BME280_temperature;BME280_humidity;BME280_pressure;Samples;Min_cycle;Max_cycle;Signal;HPM_P1;HPM_P2
2023/12/27 00:02:18;;;;;;;;;;;;;;;8.97;64.60;99910.81;4368010;32;33140;-88
2023/12/27 00:04:47;;;;;;;;;;;;;;;9.07;64.20;99914.25;4370395;32;34108;-88
2023/12/27 00:10:12;;;;;;;;;;;;;;;9.00;64.43;99909.94;4360118;32;35204;-87
2023/12/27 00:12:41;;;;;;;;;;;;;;;8.96;64.73;99919.47;4365427;32;32796;-89
2023/12/27 00:15:26;;;;;;;;;;;;;;;9.00;64.42;99922.03;4367491;32;33501;-89
2023/12/27 00:17:57;;;;;;;;;;;;;;;8.94;64.57;99915.16;4367925;32;34796;-89
2023/12/27 00:20:32;;;;;;;;;;;;;;;9.01;64.37;99911.66;4368679;32;34348;-89
2023/12/27 00:23:04;;;;;;;;;;;;;;;8.94;64.59;99921.19;4367257;32;31316;-89
2023/12/27 00:25:38;;;;;;;;;;;;;;;9.04;64.39;99923.75;4367996;32;33802;-88
2023/12/27 00:28:06;;;;;;;;;;;;;;;9.06;64.50;99919.41;4366339;32;33775;-89
2023/12/27 00:30:39;;;;;;;;;;;;;;;8.90;65.08;99934.16;4356360;32;33255;-89
2023/12/27 00:33:11;;;;;;;;;;;;;;;8.96;65.07;99931.53;4371946;32;32438;-89
2023/12/27 00:35:40;;;;;;;;;;;;;;;9.04;64.73;99934.13;4369219;32;33569;-88
2023/12/27 00:38:11;;;;;;;;;;;;;;;8.99;64.72;99941.88;4372387;32;33660;-88
2023/12/27 00:40:40;;;;;;;;;;;;;;;8.91;65.18;99943.62;4367764;32;34251;-89
2023/12/27 00:43:09;;;;;;;;;;;;;;;8.89;65.28;99941.06;4359159;32;32819;-88
2023/12/27 00:45:40;;;;;;;;;;;;;;;9.15;64.09;99950.44;4366702;32;34495;-88
2023/12/27 00:48:14;;;;;;;;;;;;;;;9.25;63.56;99951.28;4369771;32;34679;-88
2023/12/27 00:50:42;;;;;;;;;;;;;;;9.22;63.74;99954.75;4366879;32;34710;-89
2023/12/27 00:53:20;;;;;;;;;;;;;;;9.25;63.09;99949.53;4365957;32;33023;-89
2023/12/27 00:55:48;;;;;;;;;;;;;;;9.40;62.73;99956.41;4370449;32;34147;-88
2023/12/27 00:58:19;;;;;;;;;;;;;;;9.22;62.93;99964.25;4370255;32;34130;-89
2023/12/27 01:00:50;;;;;;;;;;;;;;;9.15;63.14;99960.81;4366755;32;34021;-89
2023/12/27 01:03:18;;;;;;;;;;;;;;;9.19;62.63;99970.28;4370447;32;34536;-89
2023/12/27 01:06:05;;;;;;;;;;;;;;;9.13;63.10;99983.22;4373892;32;33696;-89
2023/12/27 01:08:33;;;;;;;;;;;;;;;9.35;62.30;99981.44;4372976;32;35016;-88
2023/12/27 01:11:06;;;;;;;;;;;;;;;9.24;62.14;99978.91;4368603;32;34801;-88
2023/12/27 01:13:36;;;;;;;;;;;;;;;9.28;61.91;99985.81;4366296;32;33319;-89
2023/12/27 01:16:14;;;;;;;;;;;;;;;9.23;61.98;99984.97;4357774;32;32410;-88
2023/12/27 01:18:45;;;;;;;;;;;;;;;9.23;62.23;99991.84;4375945;32;34703;-89
2023/12/27 01:21:16;;;;;;;;;;;;;;;9.47;60.95;100001.25;4374016;32;34529;-89
2023/12/27 01:23:52;;;;;;;;;;;;;;;9.25;61.56;100003.06;4370995;32;32914;-88
2023/12/27 01:26:20;;;;;;;;;;;;;;;9.40;61.46;100009.06;4371296;32;34548;-88
2023/12/27 01:28:52;;;;;;;;;;;;;;;9.50;60.47;100012.47;4372118;32;34752;-88
2023/12/27 01:31:23;;;;;;;;;;;;;;;9.55;59.90;100018.50;4361991;32;33472;-89
2023/12/27 01:33:52;;;;;;;;;;;;;;;9.61;60.12;100015.88;4373626;32;34685;-88
2023/12/27 01:36:29;;;;;;;;;;;;;;;9.55;59.66;100017.63;4373748;32;34366;-89
2023/12/27 01:39:02;;;;;;;;;;;;;;;9.53;59.91;100020.22;4372252;32;34747;-89
2023/12/27 01:41:32;;;;;;;;;;;;;;;9.74;59.43;100026.19;4372002;32;34066;-89
2023/12/27 01:44:01;;;;;;;;;;;;;;;9.48;60.14;100008.16;4376430;32;33798;-88
2023/12/27 01:46:31;;;;;;;;;;;;;;;9.75;59.00;100018.41;4371836;32;33355;-88
2023/12/27 01:49:03;;;;;;;;;;;;;;;9.71;59.23;100013.25;4371646;32;34071;-88
2023/12/27 01:51:32;;;;;;;;;;;;;;;9.51;59.79;100021.09;4360676;32;34090;-88
2023/12/27 01:54:03;;;;;;;;;;;;;;;9.45;60.03;100014.22;4376390;32;32795;-89
2023/12/27 01:56:33;;;;;;;;;;;;;;;9.64;59.61;100014.13;4371580;32;34400;-88
2023/12/27 01:59:03;;;;;;;;;;;;;;;9.47;60.23;100017.69;4371902;32;33580;-89
2023/12/27 02:01:33;;;;;;;;;;;;;;;9.46;60.00;100012.50;4361928;32;34409;-88
2023/12/27 02:04:06;;;;;;;;;;;;;;;9.16;61.08;100019.50;4365084;32;33013;-89
2023/12/27 02:06:41;;;;;;;;;;;;;;;9.23;60.99;100026.38;4376383;32;33536;-88
2023/12/27 02:09:10;;;;;;;;;;;;;;;9.36;60.63;100020.28;4373205;32;34050;-89
2023/12/27 02:11:42;;;;;;;;;;;;;;;9.56;59.76;100022.78;4370850;32;33805;-88
2023/12/27 02:14:11;;;;;;;;;;;;;;;9.49;60.01;100020.25;4371828;32;32859;-88
2023/12/27 02:16:43;;;;;;;;;;;;;;;9.60;59.70;100026.25;4375919;32;34738;-89
2023/12/27 02:19:12;;;;;;;;;;;;;;;9.51;59.99;100034.91;4376390;32;35130;-88
2023/12/27 02:21:41;;;;;;;;;;;;;;;9.56;59.47;100040.94;4371474;32;33460;-89
2023/12/27 02:24:11;;;;;;;;;;;;;;;9.45;60.02;100044.41;4357103;32;33143;-88
2023/12/27 02:26:41;;;;;;;;;;;;;;;9.39;60.08;100053.94;4356978;32;34540;-89
2023/12/27 02:29:13;;;;;;;;;;;;;;;9.37;60.32;100049.63;4364372;32;34841;-88
2023/12/27 02:31:44;;;;;;;;;;;;;;;9.57;59.26;100058.22;4356791;32;34182;-88
2023/12/27 02:34:17;;;;;;;;;;;;;;;9.54;59.65;100058.22;4362457;32;33826;-89
2023/12/27 02:36:51;;;;;;;;;;;;;;;9.32;60.26;100059.97;4371809;32;35533;-88
2023/12/27 02:39:20;;;;;;;;;;;;;;;9.60;59.40;100050.41;4371853;32;34319;-89
2023/12/27 02:41:54;;;;;;;;;;;;;;;9.70;58.54;100052.97;4376384;32;33647;-88
2023/12/27 02:44:25;;;;;;;;;;;;;;;9.46;59.13;100048.75;4371963;32;34533;-88
2023/12/27 02:47:01;;;;;;;;;;;;;;;9.49;58.84;100048.72;4371925;32;34444;-88
2023/12/27 02:49:36;;;;;;;;;;;;;;;9.53;58.60;100043.53;4370502;32;34845;-88
2023/12/27 02:52:05;;;;;;;;;;;;;;;9.39;59.52;100045.31;4373649;32;33715;-88
2023/12/27 02:54:37;;;;;;;;;;;;;;;9.35;59.21;100047.06;4374734;32;33474;-88
2023/12/27 02:57:07;;;;;;;;;;;;;;;9.35;59.20;100054.81;4374546;32;34210;-89
2023/12/27 02:59:38;;;;;;;;;;;;;;;9.55;58.73;100054.75;4368806;32;33171;-88
2023/12/27 03:02:06;;;;;;;;;;;;;;;9.52;58.78;100066.84;4370055;32;34639;-88
2023/12/27 03:04:44;;;;;;;;;;;;;;;9.42;59.16;100070.31;4375399;32;33628;-88
2023/12/27 03:07:15;;;;;;;;;;;;;;;9.23;59.84;100078.16;4359099;32;33360;-88
2023/12/27 03:09:48;;;;;;;;;;;;;;;9.27;59.94;100073.81;4363343;32;33615;-88
2023/12/27 03:12:23;;;;;;;;;;;;;;;9.20;60.24;100080.72;4371214;32;34389;-88
2023/12/27 03:14:53;;;;;;;;;;;;;;;9.08;60.30;100080.72;4371986;32;32347;-89
2023/12/27 03:17:24;;;;;;;;;;;;;;;8.96;60.75;100085.06;4376219;32;33693;-88
2023/12/27 03:19:53;;;;;;;;;;;;;;;9.10;60.28;100091.97;4370402;32;33587;-88
2023/12/27 03:22:22;;;;;;;;;;;;;;;8.92;61.05;100092.84;4370970;32;34802;-88
2023/12/27 03:24:54;;;;;;;;;;;;;;;9.00;60.71;100087.66;4370912;32;32679;-88
2023/12/27 03:27:23;;;;;;;;;;;;;;;8.92;60.85;100095.44;4375680;32;33612;-89
2023/12/27 03:29:57;;;;;;;;;;;;;;;8.93;60.85;100103.16;4375217;32;33386;-88
2023/12/27 03:32:26;;;;;;;;;;;;;;;9.07;60.30;100107.50;4369966;32;34118;-89
2023/12/27 03:34:55;;;;;;;;;;;;;;;8.87;60.69;100100.59;4373446;32;33414;-88
2023/12/27 03:37:31;;;;;;;;;;;;;;;8.85;60.57;100096.28;4371253;32;33766;-88
2023/12/27 03:39:59;;;;;;;;;;;;;;;8.69;61.03;100108.34;4366160;32;34494;-88
2023/12/27 03:42:28;;;;;;;;;;;;;;;8.64;61.16;100108.31;4371084;32;34692;-88
2023/12/27 03:45:01;;;;;;;;;;;;;;;8.48;61.55;100104.87;4371887;32;33655;-88
2023/12/27 03:47:30;;;;;;;;;;;;;;;8.53;61.50;100110.91;4363722;32;36042;-88
2023/12/27 03:49:58;;;;;;;;;;;;;;;8.34;61.87;100109.97;4366304;32;33456;-89
2023/12/27 03:52:28;;;;;;;;;;;;;;;8.32;62.10;100116.00;4374940;32;33803;-88
2023/12/27 03:55:01;;;;;;;;;;;;;;;8.34;61.85;100116.88;4367174;32;32738;-89
2023/12/27 03:57:35;;;;;;;;;;;;;;;8.14;62.08;100116.78;4357277;32;34652;-88
2023/12/27 04:00:05;;;;;;;;;;;;;;;8.34;61.90;100124.63;4370350;32;32854;-88
2023/12/27 04:02:35;;;;;;;;;;;;;;;8.05;62.56;100140.88;4372815;32;34354;-88
2023/12/27 04:05:04;;;;;;;;;;;;;;;8.10;62.41;100128.84;4370749;32;33899;-88
2023/12/27 04:07:33;;;;;;;;;;;;;;;7.93;63.20;100133.06;4370613;32;34111;-88
2023/12/27 04:10:05;;;;;;;;;;;;;;;7.91;63.02;100132.19;4371376;32;34994;-88
2023/12/27 04:12:37;;;;;;;;;;;;;;;8.04;62.68;100135.69;4367620;32;33759;-88
2023/12/27 04:15:10;;;;;;;;;;;;;;;8.21;62.33;100130.59;4375424;32;32936;-88
2023/12/27 04:17:41;;;;;;;;;;;;;;;7.91;62.94;100129.63;4374572;32;34665;-88
2023/12/27 04:20:12;;;;;;;;;;;;;;;8.10;61.67;100134.00;4369996;32;34741;-88
2023/12/27 04:22:40;;;;;;;;;;;;;;;8.00;62.12;100126.22;4369703;32;34827;-88
2023/12/27 04:25:08;;;;;;;;;;;;;;;8.11;61.62;100130.56;4374301;32;32778;-88
2023/12/27 04:27:38;;;;;;;;;;;;;;;7.91;62.47;100127.03;4373710;32;34750;-88
2023/12/27 04:30:14;;;;;;;;;;;;;;;8.00;61.89;100131.38;4369381;32;34226;-88
2023/12/27 04:32:43;;;;;;;;;;;;;;;7.90;62.07;100130.47;4369698;32;34547;-88
2023/12/27 04:35:12;;;;;;;;;;;;;;;7.85;61.93;100142.50;4370737;32;32760;-88
2023/12/27 04:37:40;;;;;;;;;;;;;;;7.84;61.87;100133.03;4372849;32;34901;-88
2023/12/27 04:40:15;;;;;;;;;;;;;;;7.72;62.50;100141.56;4369691;32;33333;-88
2023/12/27 04:42:43;;;;;;;;;;;;;;;7.79;62.06;100132.13;4370854;32;34810;-88
2023/12/27 04:45:16;;;;;;;;;;;;;;;7.91;61.35;100140.81;4368718;32;33013;-88
2023/12/27 04:47:46;;;;;;;;;;;;;;;7.85;61.42;100151.12;4371492;32;34142;-88
2023/12/27 04:50:17;;;;;;;;;;;;;;;7.88;61.31;100148.56;4374236;32;33908;-88
2023/12/27 04:52:47;;;;;;;;;;;;;;;8.03;60.82;100162.41;4371209;32;33560;-88
2023/12/27 04:55:20;;;;;;;;;;;;;;;8.07;60.59;100165.00;4372071;32;33493;-88
2023/12/27 04:57:54;;;;;;;;;;;;;;;8.13;60.92;100167.59;4371771;32;34125;-89
2023/12/27 05:00:24;;;;;;;;;;;;;;;8.09;60.74;100168.47;4375650;32;35063;-88
2023/12/27 05:02:55;;;;;;;;;;;;;;;8.24;60.29;100171.94;4371295;32;33969;-88
2023/12/27 05:05:24;;;;;;;;;;;;;;;8.21;60.09;100172.81;4372070;32;33737;-88
2023/12/27 05:07:52;;;;;;;;;;;;;;;8.22;59.80;100181.44;4372560;32;34054;-88
2023/12/27 05:10:26;;;;;;;;;;;;;;;8.18;60.31;100184.88;4371261;32;34549;-88
2023/12/27 05:12:55;;;;;;;;;;;;;;;8.18;59.78;100177.97;4375783;32;34463;-88
2023/12/27 05:15:26;;;;;;;;;;;;;;;8.34;59.48;100186.66;4370707;32;32918;-89
2023/12/27 05:17:54;;;;;;;;;;;;;;;8.21;59.95;100195.19;4373304;32;34140;-88
2023/12/27 05:20:25;;;;;;;;;;;;;;;8.18;60.05;100192.63;4370779;32;34283;-88
2023/12/27 05:22:54;;;;;;;;;;;;;;;8.16;60.05;100199.50;4376086;32;34397;-89
2023/12/27 05:25:26;;;;;;;;;;;;;;;8.13;60.08;100206.37;4371496;32;32854;-88
2023/12/27 05:28:00;;;;;;;;;;;;;;;8.10;60.15;100202.91;4372040;32;33600;-88
2023/12/27 05:30:31;;;;;;;;;;;;;;;7.69;61.50;100206.97;4371139;32;35020;-88
2023/12/27 05:33:00;;;;;;;;;;;;;;;7.68;61.45;100213.00;4370161;32;33690;-88
2023/12/27 05:35:29;;;;;;;;;;;;;;;7.75;61.36;100213.91;4376313;32;33978;-88
2023/12/27 05:37:58;;;;;;;;;;;;;;;7.78;61.34;100210.47;4371751;32;34622;-88
2023/12/27 05:40:28;;;;;;;;;;;;;;;7.71;61.57;100204.41;4371872;32;34102;-88
2023/12/27 05:42:57;;;;;;;;;;;;;;;7.43;62.43;100217.09;4357982;32;31955;-88
2023/12/27 05:45:32;;;;;;;;;;;;;;;7.42;62.20;100224.84;4375093;32;33684;-87
2023/12/27 05:48:02;;;;;;;;;;;;;;;7.40;61.96;100213.66;4376256;32;32882;-87
2023/12/27 05:50:32;;;;;;;;;;;;;;;7.03;62.94;100223.63;4361887;32;33297;-88
2023/12/27 05:53:00;;;;;;;;;;;;;;;7.07;63.14;100234.84;4367684;32;33719;-88
2023/12/27 05:55:39;;;;;;;;;;;;;;;7.05;63.17;100240.87;4372336;32;33711;-88
2023/12/27 05:58:08;;;;;;;;;;;;;;;7.00;63.03;100246.81;4376276;32;34680;-88
2023/12/27 06:00:38;;;;;;;;;;;;;;;7.09;62.86;100251.22;4370950;32;34239;-88
2023/12/27 06:03:10;;;;;;;;;;;;;;;7.04;62.91;100251.16;4372182;32;33557;-88
2023/12/27 06:05:40;;;;;;;;;;;;;;;6.91;63.19;100257.03;4371570;32;33505;-88
2023/12/27 06:08:09;;;;;;;;;;;;;;;6.83;63.22;100249.22;4375700;32;34412;-88
2023/12/27 06:10:38;;;;;;;;;;;;;;;6.83;63.29;100255.22;4359950;32;34933;-88
2023/12/27 06:13:08;;;;;;;;;;;;;;;6.79;63.38;100257.75;4371704;32;33828;-87
2023/12/27 06:15:44;;;;;;;;;;;;;;;6.65;63.71;100267.06;4371350;32;33551;-88
2023/12/27 06:18:18;;;;;;;;;;;;;;;6.79;63.80;100268.06;4372096;32;33827;-88
2023/12/27 06:20:47;;;;;;;;;;;;;;;6.59;64.10;100273.00;4376149;32;34049;-88
2023/12/27 06:23:15;;;;;;;;;;;;;;;6.53;64.36;100271.22;4371411;32;34713;-88
2023/12/27 06:25:44;;;;;;;;;;;;;;;6.41;64.59;100284.81;4371840;32;33065;-88
2023/12/27 06:28:13;;;;;;;;;;;;;;;6.53;64.80;100276.38;4371675;32;33538;-88
2023/12/27 06:30:45;;;;;;;;;;;;;;;6.44;64.96;100286.56;4373855;32;34388;-88
2023/12/27 06:33:17;;;;;;;;;;;;;;;6.35;65.33;100296.75;4375972;32;33181;-88
2023/12/27 06:35:46;;;;;;;;;;;;;;;6.06;66.63;100296.34;4371998;32;33950;-88
2023/12/27 06:38:20;;;;;;;;;;;;;;;6.16;66.66;100305.91;4374968;32;33635;-88
2023/12/27 06:40:48;;;;;;;;;;;;;;;6.15;66.73;100306.78;4371264;32;34932;-88
2023/12/27 06:43:17;;;;;;;;;;;;;;;6.17;66.83;100321.41;4376170;32;34468;-88
2023/12/27 06:45:50;;;;;;;;;;;;;;;6.33;67.13;100325.09;4368178;32;33722;-88
2023/12/27 06:48:22;;;;;;;;;;;;;;;6.36;67.07;100327.69;4362934;32;33520;-88
2023/12/27 06:50:52;;;;;;;;;;;;;;;6.50;66.44;100345.94;4358714;32;34522;-88
2023/12/27 06:53:23;;;;;;;;;;;;;;;6.88;66.72;100339.53;4365523;32;33771;-88
2023/12/27 06:55:51;;;;;;;;;;;;;;;7.02;66.59;100344.00;4375424;32;32204;-88
2023/12/27 06:58:22;;;;;;;;;;;;;;;7.03;66.41;100347.44;4348618;32;33530;-88
2023/12/27 07:00:59;;;;;;;;;;;;;;;6.73;67.54;100363.44;4360764;32;34345;-87
2023/12/27 07:03:31;;;;;;;;;;;;;;;6.94;66.65;100365.41;4370925;32;33376;-88
2023/12/27 07:05:59;;;;;;;;;;;;;;;6.92;66.74;100361.97;4374240;32;34031;-88
2023/12/27 07:08:34;;;;;;;;;;;;;;;7.02;66.43;100358.63;4375067;32;34628;-88
2023/12/27 07:11:02;;;;;;;;;;;;;;;7.21;65.53;100350.25;4369990;32;34309;-88
2023/12/27 07:13:38;;;;;;;;;;;;;;;7.18;65.70;100355.37;4369910;32;34084;-88
2023/12/27 07:16:08;;;;;;;;;;;;;;;7.07;65.97;100356.97;4373299;32;32740;-88
2023/12/27 07:18:38;;;;;;;;;;;;;;;6.85;66.26;100358.44;4374892;32;33943;-88
2023/12/27 07:21:07;;;;;;;;;;;;;;;6.99;65.76;100371.50;4369403;32;33948;-88
2023/12/27 07:23:36;;;;;;;;;;;;;;;6.98;65.59;100382.66;4370927;32;33876;-88
2023/12/27 07:26:04;;;;;;;;;;;;;;;7.05;65.59;100392.19;4372477;32;32847;-88
2023/12/27 07:28:34;;;;;;;;;;;;;;;6.99;65.71;100393.00;4372855;32;33905;-88
2023/12/27 07:31:03;;;;;;;;;;;;;;;6.89;65.78;100393.75;4373475;32;33943;-89
2023/12/27 07:33:36;;;;;;;;;;;;;;;7.11;65.49;100404.34;4369815;32;34989;-88
2023/12/27 07:36:04;;;;;;;;;;;;;;;6.93;65.99;100397.19;4366084;32;33872;-88
2023/12/27 07:38:33;;;;;;;;;;;;;;;7.00;66.08;100397.28;4368445;32;34660;-88
2023/12/27 07:41:05;;;;;;;;;;;;;;;6.92;65.94;100408.38;4374216;32;34719;-88
2023/12/27 07:43:35;;;;;;;;;;;;;;;6.88;66.19;100411.75;4369802;32;33823;-88
2023/12/27 07:46:06;;;;;;;;;;;;;;;6.93;66.08;100410.97;4368369;32;33442;-88
2023/12/27 07:48:39;;;;;;;;;;;;;;;6.96;66.10;100417.88;4368826;32;33867;-88
2023/12/27 07:51:10;;;;;;;;;;;;;;;7.03;66.20;100422.25;4370102;32;33756;-89
2023/12/27 07:53:39;;;;;;;;;;;;;;;7.21;66.06;100414.78;4373808;32;34008;-88
2023/12/27 07:56:09;;;;;;;;;;;;;;;7.07;66.83;100418.03;4368988;32;33648;-88
2023/12/27 07:58:37;;;;;;;;;;;;;;;7.18;66.90;100427.63;4363374;32;33800;-88
2023/12/27 08:01:10;;;;;;;;;;;;;;;7.17;67.49;100436.22;4343071;32;813892;-88
2023/12/27 08:03:48;;;;;;;;;;;;;;;7.25;67.57;100439.78;4374624;32;34815;-88
2023/12/27 08:06:17;;;;;;;;;;;;;;;7.16;68.50;100451.69;4368211;32;33413;-88
2023/12/27 08:08:52;;;;;;;;;;;;;;;7.44;67.67;100445.12;4349782;32;34257;-88
2023/12/27 08:11:27;;;;;;;;;;;;;;;7.60;67.30;100444.47;4368792;32;33815;-88
2023/12/27 08:13:55;;;;;;;;;;;;;;;7.77;66.79;100447.22;4370083;32;33270;-88
2023/12/27 08:16:25;;;;;;;;;;;;;;;7.76;67.17;100444.66;4371908;32;33728;-89
2023/12/27 08:18:56;;;;;;;;;;;;;;;7.95;66.30;100443.97;4371437;32;33167;-89
2023/12/27 08:21:24;;;;;;;;;;;;;;;7.88;66.38;100447.34;4369765;32;35227;-88
2023/12/27 08:23:57;;;;;;;;;;;;;;;8.13;65.20;100438.97;4353379;32;32268;-88
2023/12/27 08:26:27;;;;;;;;;;;;;;;8.19;64.26;100442.44;4375363;32;33533;-88
2023/12/27 08:28:59;;;;;;;;;;;;;;;8.26;63.92;100452.00;4375846;32;34078;-88
2023/12/27 08:31:28;;;;;;;;;;;;;;;8.47;63.30;100446.16;4370428;32;33625;-89
2023/12/27 08:34:02;;;;;;;;;;;;;;;8.58;63.14;100459.16;4371647;32;32628;-88
2023/12/27 08:36:35;;;;;;;;;;;;;;;8.50;63.12;100459.09;4371141;32;32661;-88
2023/12/27 08:39:04;;;;;;;;;;;;;;;8.63;62.89;100473.03;4374935;32;34186;-88
2023/12/27 08:41:36;;;;;;;;;;;;;;;8.86;62.22;100475.75;4371632;32;35619;-89
2023/12/27 08:44:05;;;;;;;;;;;;;;;8.92;61.77;100478.38;4370623;32;33844;-88
2023/12/27 08:46:37;;;;;;;;;;;;;;;8.92;62.34;100492.19;4373872;32;32948;-89
2023/12/27 08:49:09;;;;;;;;;;;;;;;9.09;62.19;100496.59;4371932;32;33847;-89
2023/12/27 08:51:39;;;;;;;;;;;;;;;8.99;62.08;100490.50;4363246;32;33982;-88
2023/12/27 08:54:07;;;;;;;;;;;;;;;9.12;62.09;100494.03;4364675;32;34273;-88
2023/12/27 08:56:36;;;;;;;;;;;;;;;9.29;60.90;100483.75;4368099;32;32841;-89
2023/12/27 08:59:06;;;;;;;;;;;;;;;9.14;61.59;100500.09;4369788;32;34281;-88
2023/12/27 09:01:37;;;;;;;;;;;;;;;9.15;61.68;100499.22;4375735;32;34489;-89
2023/12/27 09:04:11;;;;;;;;;;;;;;;9.28;61.11;100511.37;4370833;32;34355;-88
2023/12/27 09:06:45;;;;;;;;;;;;;;;9.42;60.96;100521.78;4370711;32;33357;-89
2023/12/27 09:09:14;;;;;;;;;;;;;;;9.63;60.25;100530.53;4371354;32;34569;-89
2023/12/27 09:11:44;;;;;;;;;;;;;;;9.53;60.50;100529.63;4368400;32;34981;-89
2023/12/27 09:14:12;;;;;;;;;;;;;;;9.67;60.08;100527.97;4375149;32;34551;-88
2023/12/27 09:16:50;;;;;;;;;;;;;;;9.83;59.64;100523.69;4370752;32;32947;-89
2023/12/27 09:19:20;;;;;;;;;;;;;;;9.76;59.56;100527.09;4359912;32;32604;-88
2023/12/27 09:21:56;;;;;;;;;;;;;;;9.65;59.84;100521.91;4363341;32;33924;-88
2023/12/27 09:24:30;;;;;;;;;;;;;;;9.65;60.10;100523.62;4367073;32;34266;-88
2023/12/27 09:26:59;;;;;;;;;;;;;;;9.60;60.01;100526.19;4376502;32;33161;-88
2023/12/27 09:29:33;;;;;;;;;;;;;;;9.79;59.83;100535.78;4372092;32;33564;-88
2023/12/27 09:32:01;;;;;;;;;;;;;;;9.80;59.46;100534.03;4370334;32;34542;-88
2023/12/27 09:34:34;;;;;;;;;;;;;;;9.63;60.12;100541.75;4370378;32;34699;-88
2023/12/27 09:37:03;;;;;;;;;;;;;;;9.67;59.63;100530.56;4374992;32;33768;-88
2023/12/27 09:39:32;;;;;;;;;;;;;;;9.53;59.21;100535.66;4374216;32;33252;-88
2023/12/27 09:42:01;;;;;;;;;;;;;;;9.58;59.14;100530.50;4370191;32;34869;-88
2023/12/27 09:44:37;;;;;;;;;;;;;;;9.52;59.28;100525.28;4361635;32;32584;-89
2023/12/27 09:47:11;;;;;;;;;;;;;;;9.71;58.83;100528.81;4369769;32;33302;-88
2023/12/27 09:49:50;;;;;;;;;;;;;;;9.71;58.77;100521.94;4374464;32;33446;-88
2023/12/27 09:52:22;;;;;;;;;;;;;;;9.65;58.07;100524.50;4368592;32;32784;-88
2023/12/27 09:55:02;;;;;;;;;;;;;;;9.65;57.71;100529.66;4369683;32;33967;-88
2023/12/27 09:57:32;;;;;;;;;;;;;;;9.72;57.92;100539.19;4370110;32;33031;-88
2023/12/27 10:00:05;;;;;;;;;;;;;;;9.98;57.10;100541.87;4370709;32;33629;-88
2023/12/27 10:02:34;;;;;;;;;;;;;;;10.00;56.84;100534.09;4372423;32;34916;-88
2023/12/27 10:05:11;;;;;;;;;;;;;;;9.97;56.57;100532.37;4372973;32;33602;-89
2023/12/27 10:07:41;;;;;;;;;;;;;;;10.01;56.21;100528.06;4370529;32;33177;-88
2023/12/27 10:10:13;;;;;;;;;;;;;;;10.06;56.38;100525.50;4371453;32;34046;-89
2023/12/27 10:12:54;;;;;;;;;;;;;;;9.98;56.63;100515.09;4370714;32;34004;-88
2023/12/27 10:15:23;;;;;;;;;;;;;;;10.04;56.51;100521.16;4375861;32;33844;-88
2023/12/27 10:17:53;;;;;;;;;;;;;;;9.82;57.29;100507.28;4374892;32;33265;-88
2023/12/27 10:20:36;;;;;;;;;;;;;;;9.87;57.40;100515.06;4370804;32;33665;-88
2023/12/27 10:23:05;;;;;;;;;;;;;;;9.95;57.09;100515.94;4371216;32;34998;-89
2023/12/27 10:25:42;;;;;;;;;;;;;;;10.09;57.16;100517.72;4372596;32;34132;-88
2023/12/27 10:28:10;;;;;;;;;;;;;;;9.99;56.91;100514.22;4375169;32;32602;-87
2023/12/27 10:30:42;;;;;;;;;;;;;;;9.87;57.62;100517.66;4372701;32;33861;-89
2023/12/27 10:33:11;;;;;;;;;;;;;;;10.04;56.90;100522.88;4371155;32;34673;-88
2023/12/27 10:35:47;;;;;;;;;;;;;;;9.82;56.39;100524.56;4371755;32;34425;-88
2023/12/27 10:38:24;;;;;;;;;;;;;;;9.89;56.48;100513.34;4375577;32;33994;-87
2023/12/27 10:40:55;;;;;;;;;;;;;;;9.78;56.98;100520.22;4374619;32;33517;-88
2023/12/27 10:43:26;;;;;;;;;;;;;;;10.24;56.32;100526.41;4356393;32;33372;-88
2023/12/27 10:45:58;;;;;;;;;;;;;;;10.49;55.13;100529.03;4370929;32;34404;-88
2023/12/27 10:48:30;;;;;;;;;;;;;;;10.47;55.11;100522.97;4370879;32;33951;-88
2023/12/27 10:51:00;;;;;;;;;;;;;;;10.49;54.67;100523.00;4361893;32;33336;-89
2023/12/27 10:53:29;;;;;;;;;;;;;;;10.33;55.24;100522.97;4370414;32;36540;-89
2023/12/27 10:55:59;;;;;;;;;;;;;;;10.41;55.48;100525.56;4364687;32;33500;-88
2023/12/27 10:58:28;;;;;;;;;;;;;;;10.60;54.27;100529.03;4363669;32;34266;-88
2023/12/27 11:00:56;;;;;;;;;;;;;;;10.37;54.10;100524.72;4368980;32;34590;-87
2023/12/27 11:03:29;;;;;;;;;;;;;;;10.46;52.66;100516.94;4375438;32;33730;-88
2023/12/27 11:06:13;;;;;;;;;;;;;;;10.28;53.60;100516.91;4357131;32;33817;-88
2023/12/27 11:08:45;;;;;;;;;;;;;;;10.48;51.99;100508.28;4373466;32;33502;-88
2023/12/27 11:11:15;;;;;;;;;;;;;;;10.45;52.61;100509.16;4370330;32;33659;-88
2023/12/27 11:13:43;;;;;;;;;;;;;;;10.26;52.89;100505.63;4370519;32;34375;-88
2023/12/27 11:16:19;;;;;;;;;;;;;;;10.32;52.04;100497.91;4375460;32;33731;-88
2023/12/27 11:18:52;;;;;;;;;;;;;;;10.27;52.00;100491.81;4372214;32;33410;-88
2023/12/27 11:21:22;;;;;;;;;;;;;;;10.11;52.42;100485.75;4370877;32;34800;-87
2023/12/27 11:23:54;;;;;;;;;;;;;;;10.03;52.48;100485.72;4368724;32;36290;-88
2023/12/27 11:26:23;;;;;;;;;;;;;;;10.26;51.45;100487.47;4374687;32;33759;-88
2023/12/27 11:28:57;;;;;;;;;;;;;;;10.07;52.69;100476.22;4369097;32;33802;-88
2023/12/27 11:31:26;;;;;;;;;;;;;;;10.17;52.89;100466.72;4371044;32;33465;-88
2023/12/27 11:33:57;;;;;;;;;;;;;;;10.20;52.35;100471.94;4370384;32;33787;-88
2023/12/27 11:36:26;;;;;;;;;;;;;;;10.39;52.52;100476.28;4370438;32;33926;-88
2023/12/27 11:38:58;;;;;;;;;;;;;;;10.37;52.92;100466.78;4362791;32;33382;-88
2023/12/27 11:41:32;;;;;;;;;;;;;;;10.16;52.65;100467.59;4368138;32;33772;-88
2023/12/27 11:44:09;;;;;;;;;;;;;;;10.22;52.06;100465.88;4370105;32;33804;-88
2023/12/27 11:46:40;;;;;;;;;;;;;;;10.16;52.27;100468.44;4375647;32;33828;-89
2023/12/27 11:49:09;;;;;;;;;;;;;;;10.47;51.92;100471.09;4370905;32;33321;-88
2023/12/27 11:51:40;;;;;;;;;;;;;;;10.50;51.56;100467.63;4373977;32;33637;-89
2023/12/27 11:54:09;;;;;;;;;;;;;;;10.38;51.78;100471.94;4351482;32;32561;-88
2023/12/27 11:56:40;;;;;;;;;;;;;;;10.59;51.08;100467.63;4374174;32;33628;-88
2023/12/27 11:59:11;;;;;;;;;;;;;;;10.59;49.59;100463.31;4355707;32;31967;-88
2023/12/27 12:01:49;;;;;;;;;;;;;;;10.37;49.69;100461.59;4370734;32;33716;-88
2023/12/27 12:04:24;;;;;;;;;;;;;;;10.28;50.76;100446.00;4371226;32;35836;-88
2023/12/27 12:07:21;;;;;;;;;;;;;;;10.44;50.71;100452.94;4369757;32;33502;-88
2023/12/27 12:09:55;;;;;;;;;;;;;;;10.67;50.85;100445.12;4302541;33;32885;-88
2023/12/27 12:12:24;;;;;;;;;;;;;;;10.58;50.62;100451.22;4307384;33;32753;-88
2023/12/27 12:14:56;;;;;;;;;;;;;;;10.50;50.92;100452.94;4301482;33;33440;-88
2023/12/27 12:17:26;;;;;;;;;;;;;;;10.26;51.38;100453.75;4313514;33;33753;-88
2023/12/27 12:20:03;;;;;;;;;;;;;;;10.54;49.46;100448.62;4306686;33;32933;-88
2023/12/27 12:22:37;;;;;;;;;;;;;;;10.55;48.61;100452.94;4308864;33;33668;-88
2023/12/27 12:25:08;;;;;;;;;;;;;;;10.50;49.21;100454.66;4305195;33;34009;-88
2023/12/27 12:27:42;;;;;;;;;;;;;;;10.63;49.88;100453.78;4311427;33;33672;-88
2023/12/27 12:30:12;;;;;;;;;;;;;;;10.77;49.15;100454.63;4302874;33;33295;-88
2023/12/27 12:32:47;;;;;;;;;;;;;;;10.67;49.48;100453.78;4304775;33;33283;-88
2023/12/27 12:35:16;;;;;;;;;;;;;;;10.82;49.44;100441.63;4307268;33;33945;-88
2023/12/27 12:37:52;;;;;;;;;;;;;;;10.93;49.03;100442.50;4307518;33;34595;-88
2023/12/27 12:40:23;;;;;;;;;;;;;;;10.62;49.86;100450.31;4299205;33;33254;-88
2023/12/27 12:42:52;;;;;;;;;;;;;;;10.77;49.35;100452.03;4301564;33;33528;-88
2023/12/27 12:45:25;;;;;;;;;;;;;;;10.79;49.29;100459.81;4316282;32;33897;-88
2023/12/27 12:47:54;;;;;;;;;;;;;;;10.57;50.27;100454.66;4372359;32;35245;-88
2023/12/27 12:50:29;;;;;;;;;;;;;;;10.80;50.19;100458.94;4369512;32;33213;-88
2023/12/27 12:52:58;;;;;;;;;;;;;;;10.75;50.32;100458.97;4368792;32;34870;-88
2023/12/27 12:55:31;;;;;;;;;;;;;;;11.22;48.47;100457.13;4364472;32;34763;-88
2023/12/27 12:57:59;;;;;;;;;;;;;;;11.15;48.84;100456.28;4366309;32;34624;-88
2023/12/27 13:00:31;;;;;;;;;;;;;;;10.99;49.32;100454.56;4369848;32;33061;-88
2023/12/27 13:03:05;;;;;;;;;;;;;;;11.27;49.09;100440.63;4373478;32;34782;-88
2023/12/27 13:05:34;;;;;;;;;;;;;;;11.23;48.50;100438.91;4371183;32;34230;-88
2023/12/27 13:08:04;;;;;;;;;;;;;;;11.05;49.66;100439.00;4365827;32;33563;-88
2023/12/27 13:10:35;;;;;;;;;;;;;;;11.24;49.30;100437.19;4368762;32;33308;-88